Time;durP1;ratioP1;P1;durP2;ratioP2;P2;SDS_P1;SDS_P2;PMS_P1;PMS_P2;Temp;Humidity;BMP_temperature;BMP_pressure;BME280_temperature;BME280_humidity;BME280_pressure;Samples;Min_cycle;Max_cycle;Signal;HPM_P1;HPM_P2
2021/12/21 00:01:54;;;;;;;22.55;11.48;;;-1.90;99.90;;;;;;5044140;28;20040;-69
2021/12/21 00:04:19;;;;;;;21.20;10.68;;;-1.50;99.90;;;;;;5063755;28;20070;-69
2021/12/21 00:06:45;;;;;;;25.35;12.65;;;-1.00;99.90;;;;;;5059200;28;20048;-68
2021/12/21 00:09:11;;;;;;;21.05;12.10;;;-1.90;99.90;;;;;;5064856;28;20173;-69
2021/12/21 00:11:37;;;;;;;25.00;11.00;;;-2.00;99.90;;;;;;5070342;28;20476;-68
2021/12/21 00:14:24;;;;;;;28.10;13.88;;;-2.00;99.90;;;;;;5026451;28;20055;-68
2021/12/21 00:17:10;;;;;;;27.73;13.88;;;-1.90;99.90;;;;;;5054075;28;20045;-69
2021/12/21 00:22:24;;;;;;;;;;;-1.30;99.90;;;;;;5054898;28;20045;-68
2021/12/21 00:24:49;;;;;;;21.63;10.68;;;-2.10;99.90;;;;;;5048514;28;19924;-68
2021/12/21 00:27:16;;;;;;;24.45;12.10;;;-1.30;99.90;;;;;;5030271;28;20104;-69
2021/12/21 00:29:41;;;;;;;27.45;12.90;;;-2.10;99.90;;;;;;5067566;28;20082;-69
2021/12/21 00:32:08;;;;;;;28.13;13.77;;;-2.10;99.90;;;;;;5036562;28;20131;-68
2021/12/21 00:34:35;;;;;;;30.45;14.40;;;-2.10;99.90;;;;;;5040523;28;20056;-69
2021/12/21 00:37:00;;;;;;;28.85;13.88;;;-2.00;99.90;;;;;;5063461;28;20036;-69
2021/12/21 00:39:26;;;;;;;25.55;12.88;;;-2.10;99.90;;;;;;5061579;28;20051;-68
2021/12/21 00:41:52;;;;;;;27.55;14.43;;;-2.10;99.90;;;;;;5049347;28;20047;-69
2021/12/21 00:44:17;;;;;;;28.15;14.05;;;-2.10;99.90;;;;;;5054262;28;20462;-69
2021/12/21 00:46:44;;;;;;;25.05;12.95;;;-2.10;99.90;;;;;;5059662;28;20049;-68
2021/12/21 00:49:17;;;;;;;22.17;11.57;;;-2.10;99.90;;;;;;5055077;28;20112;-69
2021/12/21 00:51:45;;;;;;;27.00;12.70;;;-2.10;99.90;;;;;;5062351;28;20044;-69
2021/12/21 00:54:11;;;;;;;30.17;12.68;;;-2.10;99.90;;;;;;5061965;28;20044;-69
2021/12/21 00:56:37;;;;;;;29.60;13.60;;;-2.20;99.90;;;;;;5050028;28;20131;-68
2021/12/21 00:59:04;;;;;;;25.85;12.52;;;-2.20;99.90;;;;;;5054684;28;20123;-68
2021/12/21 01:01:31;;;;;;;24.90;13.30;;;-2.10;99.90;;;;;;5057659;28;20063;-69
2021/12/21 01:03:58;;;;;;;28.67;12.50;;;-2.20;99.90;;;;;;5060915;28;20093;-69
2021/12/21 01:06:40;;;;;;;30.70;13.55;;;-2.20;99.90;;;;;;5054118;28;20070;-69
2021/12/21 01:12:00;;;;;;;28.30;13.10;;;-1.40;99.90;;;;;;5041749;28;20047;-69
2021/12/21 01:14:54;;;;;;;27.75;14.30;;;-1.60;99.90;;;;;;5070694;28;20048;-69
2021/12/21 01:17:19;;;;;;;29.23;15.25;;;-2.30;99.90;;;;;;5067957;28;20044;-70
2021/12/21 01:19:59;;;;;;;27.95;14.70;;;-2.10;99.90;;;;;;5070708;28;20093;-69
2021/12/21 01:23:02;;;;;;;30.20;15.00;;;-2.30;99.90;;;;;;5053985;28;20044;-68
2021/12/21 01:25:26;;;;;;;31.88;15.60;;;-2.30;99.90;;;;;;5070965;28;20048;-70
2021/12/21 01:28:03;;;;;;;26.63;14.02;;;-2.20;99.90;;;;;;5056860;28;20055;-69
2021/12/21 01:30:44;;;;;;;25.77;13.90;;;-2.20;99.90;;;;;;5053012;28;20045;-69
2021/12/21 01:35:41;;;;;;;31.00;13.90;;;-2.30;99.90;;;;;;5070629;28;20101;-68
2021/12/21 01:38:23;;;;;;;28.70;14.13;;;-2.30;99.90;;;;;;5071027;28;20405;-69
2021/12/21 01:41:03;;;;;;;28.15;14.82;;;-2.30;99.90;;;;;;5033275;28;20036;-69
2021/12/21 01:43:41;;;;;;;35.08;15.07;;;-2.40;99.90;;;;;;5052241;28;20051;-68
2021/12/21 01:51:36;;;;;;;30.70;15.43;;;-2.40;99.90;;;;;;5057755;28;20048;-69
2021/12/21 01:54:02;;;;;;;22.45;13.77;;;-2.40;99.90;;;;;;5054388;28;20056;-69
2021/12/21 01:56:28;;;;;;;26.90;14.82;;;-2.40;99.90;;;;;;5072437;28;20052;-69
2021/12/21 01:58:54;;;;;;;36.55;16.83;;;-2.40;99.90;;;;;;5070382;28;20378;-68
2021/12/21 02:01:22;;;;;;;30.67;14.80;;;-2.40;99.90;;;;;;5071642;28;20047;-69
2021/12/21 02:03:48;;;;;;;28.77;15.57;;;-1.50;99.90;;;;;;5068930;28;20047;-69
2021/12/21 02:06:19;;;;;;;31.25;15.60;;;-2.40;99.90;;;;;;5031633;28;20043;-69
2021/12/21 02:08:45;;;;;;;31.02;14.30;;;-2.40;99.90;;;;;;5065618;28;20044;-69
2021/12/21 02:11:12;;;;;;;29.38;13.23;;;-2.50;99.90;;;;;;5050291;28;20052;-71
2021/12/21 02:13:43;;;;;;;25.85;14.00;;;-2.10;99.90;;;;;;5069427;28;20051;-68
2021/12/21 02:16:08;;;;;;;27.40;13.85;;;-2.50;99.90;;;;;;5070844;28;20052;-68
2021/12/21 02:18:44;;;;;;;33.13;16.70;;;-1.50;99.90;;;;;;5054350;28;20090;-69
2021/12/21 02:21:34;;;;;;;38.30;18.40;;;-2.50;99.90;;;;;;5052574;28;20055;-68
2021/12/21 02:24:07;;;;;;;31.38;16.70;;;-2.50;99.90;;;;;;5070800;28;20048;-69
2021/12/21 02:31:57;;;;;;;32.70;16.17;;;-1.60;99.90;;;;;;5027635;28;20131;-69
2021/12/21 02:34:24;;;;;;;30.85;15.85;;;-1.80;99.90;;;;;;5056097;28;20127;-69
2021/12/21 02:36:53;;;;;;;31.13;16.30;;;-2.60;99.90;;;;;;5056781;28;20477;-69
2021/12/21 02:39:20;;;;;;;36.60;17.20;;;-2.60;99.90;;;;;;5073479;28;20109;-69
2021/12/21 02:41:46;;;;;;;29.55;16.20;;;-2.60;99.90;;;;;;5073316;28;20454;-68
2021/12/21 02:44:13;;;;;;;26.60;14.68;;;-1.50;99.90;;;;;;5051682;28;20048;-68
2021/12/21 02:46:40;;;;;;;34.72;15.52;;;-2.60;99.90;;;;;;5074369;28;20143;-68
2021/12/21 02:49:10;;;;;;;29.85;15.38;;;-2.70;99.90;;;;;;5055218;28;20055;-68
2021/12/21 02:51:42;;;;;;;30.83;16.05;;;-2.60;99.90;;;;;;5074407;28;20044;-69
2021/12/21 02:54:09;;;;;;;32.42;16.13;;;-2.60;99.90;;;;;;5070511;28;20401;-69
2021/12/21 02:56:35;;;;;;;26.38;15.18;;;-2.60;99.90;;;;;;5058017;28;20374;-68
2021/12/21 02:59:01;;;;;;;28.15;15.80;;;-2.70;99.90;;;;;;5073325;28;20105;-69
2021/12/21 03:01:28;;;;;;;26.58;15.15;;;-2.10;99.90;;;;;;5056538;28;20052;-69
2021/12/21 03:03:55;;;;;;;25.95;13.88;;;-2.70;99.90;;;;;;5059246;28;20048;-69
2021/12/21 03:11:50;;;;;;;28.05;15.20;;;-2.70;99.90;;;;;;5072412;28;20137;-68
2021/12/21 03:14:16;;;;;;;25.45;14.50;;;-2.70;99.90;;;;;;5070921;28;20043;-69
2021/12/21 03:16:42;;;;;;;22.40;14.68;;;-2.70;99.90;;;;;;5068546;28;20052;-69
2021/12/21 03:19:10;;;;;;;19.90;13.02;;;-2.70;99.90;;;;;;5069828;28;20062;-69
2021/12/21 03:21:37;;;;;;;24.00;13.50;;;-2.80;99.90;;;;;;5073665;28;20044;-69
2021/12/21 03:24:04;;;;;;;23.63;14.23;;;-2.80;99.90;;;;;;5040702;28;20036;-69
2021/12/21 03:26:31;;;;;;;22.30;14.00;;;-2.80;99.90;;;;;;5041018;28;20760;-69
2021/12/21 03:28:57;;;;;;;24.65;15.20;;;-2.80;99.90;;;;;;5069568;28;20496;-69
2021/12/21 03:31:23;;;;;;;27.40;15.00;;;-2.70;99.90;;;;;;5057371;28;20040;-69
2021/12/21 03:33:50;;;;;;;25.45;15.05;;;-2.70;99.90;;;;;;5053334;28;20052;-69
2021/12/21 03:36:16;;;;;;;30.70;17.30;;;-2.80;99.90;;;;;;5069400;28;20040;-68
2021/12/21 03:38:57;;;;;;;29.77;16.10;;;-2.70;99.90;;;;;;5069578;28;20437;-68
2021/12/21 03:41:25;;;;;;;27.25;15.57;;;-2.70;99.90;;;;;;5070740;28;20137;-69
2021/12/21 03:43:51;;;;;;;29.45;14.80;;;-2.80;99.90;;;;;;5053946;28;20048;-70
2021/12/21 03:46:17;;;;;;;21.17;13.43;;;-2.70;99.90;;;;;;5070357;28;20067;-69
2021/12/21 03:48:46;;;;;;;24.42;14.13;;;-2.20;99.90;;;;;;5071198;28;20052;-69
2021/12/21 03:51:15;;;;;;;25.60;14.35;;;-2.80;99.90;;;;;;5054643;28;20609;-69
2021/12/21 03:53:42;;;;;;;24.13;15.05;;;-2.80;99.90;;;;;;5068115;28;20044;-70
2021/12/21 03:58:37;;;;;;;26.27;14.43;;;-2.40;99.90;;;;;;5073043;28;20055;-69
2021/12/21 04:01:04;;;;;;;27.52;15.45;;;-2.80;99.90;;;;;;5071847;28;20052;-69
2021/12/21 04:03:29;;;;;;;28.30;15.27;;;-2.80;99.90;;;;;;5073463;28;20400;-69
2021/12/21 04:05:55;;;;;;;25.35;14.32;;;-2.80;99.90;;;;;;5052741;28;20059;-71
2021/12/21 04:08:21;;;;;;;32.13;15.25;;;-2.80;99.90;;;;;;5084796;28;20062;-70
2021/12/21 04:10:47;;;;;;;29.23;15.00;;;-2.80;99.90;;;;;;5065517;28;21783;-71
2021/12/21 04:13:12;;;;;;;30.33;14.90;;;-2.80;99.90;;;;;;5049095;28;20522;-71
2021/12/21 04:15:42;;;;;;;25.63;15.05;;;-2.80;99.90;;;;;;5066690;28;20056;-70
2021/12/21 04:18:20;;;;;;;28.92;14.20;;;-2.80;99.90;;;;;;5066961;28;20052;-69
2021/12/21 04:20:46;;;;;;;27.45;14.40;;;-2.80;99.90;;;;;;5067713;28;20047;-70
2021/12/21 04:23:12;;;;;;;32.35;15.23;;;-2.80;99.90;;;;;;5065227;28;20393;-69
2021/12/21 04:25:37;;;;;;;30.52;16.30;;;-2.50;99.90;;;;;;5067960;28;20040;-70
2021/12/21 04:28:03;;;;;;;23.88;12.85;;;-2.70;99.90;;;;;;5066538;28;20051;-70
2021/12/21 04:30:29;;;;;;;31.42;13.27;;;-2.80;99.90;;;;;;5067147;28;20131;-69
2021/12/21 04:32:56;;;;;;;25.60;13.70;;;-2.90;99.90;;;;;;5065191;28;20040;-69
2021/12/21 04:35:22;;;;;;;23.05;13.35;;;-1.80;99.90;;;;;;5063786;28;20105;-70
2021/12/21 04:37:54;;;;;;;26.40;14.27;;;-2.50;99.90;;;;;;5046032;28;20094;-69
2021/12/21 04:40:24;;;;;;;32.25;16.40;;;-2.90;99.90;;;;;;5066027;28;20050;-69
2021/12/21 04:42:50;;;;;;;31.83;15.55;;;-2.90;99.90;;;;;;5064538;28;20169;-70
2021/12/21 04:45:16;;;;;;;31.77;17.25;;;-2.80;99.90;;;;;;5067136;28;20105;-70
2021/12/21 04:47:42;;;;;;;29.65;15.35;;;-2.40;99.90;;;;;;5051369;28;20058;-69
2021/12/21 04:50:09;;;;;;;23.55;13.93;;;-2.80;99.90;;;;;;5067036;28;20645;-70
2021/12/21 04:52:34;;;;;;;25.55;14.57;;;-2.80;99.90;;;;;;5067372;28;20381;-69
2021/12/21 04:55:00;;;;;;;30.23;16.88;;;-2.90;99.90;;;;;;5068417;28;20048;-69
2021/12/21 04:57:26;;;;;;;25.23;14.35;;;-2.90;99.90;;;;;;5049940;28;20044;-69
2021/12/21 04:59:52;;;;;;;28.20;15.02;;;-2.90;99.90;;;;;;5068479;28;20117;-69
2021/12/21 05:02:18;;;;;;;24.15;13.85;;;-2.90;99.90;;;;;;5064200;28;20484;-70
2021/12/21 05:04:44;;;;;;;26.25;13.75;;;-3.00;99.90;;;;;;5047459;28;20056;-70
2021/12/21 05:07:09;;;;;;;22.95;13.63;;;-3.00;99.90;;;;;;5045099;28;20057;-69
2021/12/21 05:09:44;;;;;;;27.20;13.52;;;-2.30;99.90;;;;;;5062489;28;20040;-69
2021/12/21 05:12:12;;;;;;;21.27;12.77;;;-2.40;99.90;;;;;;5059296;28;20090;-69
2021/12/21 05:14:39;;;;;;;22.83;13.40;;;-3.00;99.90;;;;;;5063099;28;20090;-69
2021/12/21 05:17:05;;;;;;;26.88;14.63;;;-2.80;99.90;;;;;;5046838;28;20040;-69
2021/12/21 05:19:32;;;;;;;27.15;13.90;;;-3.00;99.90;;;;;;5063974;28;20044;-69
2021/12/21 05:21:57;;;;;;;26.33;14.00;;;-3.10;99.90;;;;;;5062166;28;20504;-69
2021/12/21 05:24:23;;;;;;;27.42;14.23;;;-3.00;99.90;;;;;;5066763;28;20048;-69
2021/12/21 05:26:49;;;;;;;25.17;13.57;;;-3.00;99.90;;;;;;5061161;28;20131;-69
2021/12/21 05:29:15;;;;;;;24.27;13.30;;;-2.20;99.90;;;;;;5063951;28;20564;-69
2021/12/21 05:31:41;;;;;;;24.80;13.35;;;-3.10;99.90;;;;;;5062716;28;20429;-69
2021/12/21 05:34:07;;;;;;;27.38;14.02;;;-3.10;99.90;;;;;;5063276;28;20059;-69
2021/12/21 05:36:33;;;;;;;25.50;13.45;;;-3.10;99.90;;;;;;5058119;28;20045;-69
2021/12/21 05:39:03;;;;;;;23.30;14.07;;;-3.10;99.90;;;;;;5064837;28;20100;-70
2021/12/21 05:41:45;;;;;;;26.40;14.13;;;-3.10;99.90;;;;;;5043543;28;20056;-68
2021/12/21 05:44:12;;;;;;;26.23;13.60;;;-3.10;99.90;;;;;;5063776;28;20489;-70
2021/12/21 05:46:37;;;;;;;21.38;12.38;;;-3.20;99.90;;;;;;5059907;28;20060;-69
2021/12/21 05:49:03;;;;;;;21.50;12.50;;;-3.10;99.90;;;;;;5045199;28;20493;-70
2021/12/21 05:51:29;;;;;;;23.65;12.32;;;-3.20;99.90;;;;;;5061083;28;20186;-69
2021/12/21 05:53:54;;;;;;;25.45;12.38;;;-2.20;99.90;;;;;;5064710;28;20064;-70
2021/12/21 05:56:20;;;;;;;25.50;12.45;;;-3.20;99.90;;;;;;5058512;28;20052;-69
2021/12/21 05:58:46;;;;;;;23.38;13.02;;;-2.50;99.90;;;;;;5063697;28;20080;-69
2021/12/21 06:01:12;;;;;;;26.65;13.15;;;-3.30;99.90;;;;;;5045976;28;20036;-68
2021/12/21 06:03:38;;;;;;;26.65;12.98;;;-3.20;99.90;;;;;;5064262;28;20036;-69
2021/12/21 06:06:04;;;;;;;26.67;12.73;;;-3.20;99.90;;;;;;5045252;28;20114;-69
2021/12/21 06:08:30;;;;;;;25.02;12.88;;;-2.20;99.90;;;;;;5052373;28;20045;-69
2021/12/21 06:10:56;;;;;;;28.10;13.07;;;-2.90;99.90;;;;;;5050632;28;20040;-69
2021/12/21 06:26:34;;;;;;;26.92;12.52;;;-3.30;99.90;;;;;;5065509;28;20450;-69
2021/12/21 06:29:00;;;;;;;24.73;13.73;;;-3.30;99.90;;;;;;5054846;28;20146;-69
2021/12/21 06:31:26;;;;;;;21.50;12.18;;;-3.20;99.90;;;;;;5037755;28;20053;-69
2021/12/21 06:33:52;;;;;;;23.42;12.50;;;-3.30;99.90;;;;;;5064658;28;20040;-69
2021/12/21 06:36:18;;;;;;;26.30;13.77;;;-3.30;99.90;;;;;;5068041;28;20470;-69
2021/12/21 06:38:44;;;;;;;22.80;12.32;;;-3.30;99.90;;;;;;5066525;28;20080;-69
2021/12/21 06:41:10;;;;;;;23.70;12.13;;;-3.30;99.90;;;;;;5067731;28;20055;-69
2021/12/21 06:43:36;;;;;;;23.90;12.13;;;-3.40;99.90;;;;;;5049956;28;20261;-68
2021/12/21 06:53:58;;;;;;;25.08;12.13;;;-3.40;99.90;;;;;;5037267;28;20166;-69
2021/12/21 06:56:26;;;;;;;23.00;11.63;;;-3.40;99.90;;;;;;5040790;28;20060;-70
2021/12/21 06:58:55;;;;;;;29.85;13.35;;;-3.40;99.90;;;;;;5053544;28;20135;-69
2021/12/21 07:01:21;;;;;;;27.92;13.32;;;-3.40;99.90;;;;;;5069413;28;20056;-70
2021/12/21 07:03:47;;;;;;;20.20;11.68;;;-3.40;99.90;;;;;;5053732;28;20079;-69
2021/12/21 07:06:16;;;;;;;25.20;13.07;;;-3.50;99.90;;;;;;5073650;28;20048;-69
2021/12/21 07:08:58;;;;;;;25.88;13.05;;;-3.50;99.90;;;;;;5072975;28;20404;-69
2021/12/21 07:11:30;;;;;;;25.98;13.27;;;-3.40;99.90;;;;;;5074298;28;20504;-70
2021/12/21 07:19:26;;;;;;;26.80;13.23;;;-3.50;99.90;;;;;;5073722;28;20056;-69
2021/12/21 07:21:52;;;;;;;28.27;12.60;;;-3.50;99.90;;;;;;5057469;28;20040;-70
2021/12/21 07:24:17;;;;;;;30.83;13.93;;;-3.50;99.90;;;;;;5073302;28;20039;-69
2021/12/21 07:26:43;;;;;;;22.55;13.02;;;-3.10;99.90;;;;;;5074540;28;20047;-70
2021/12/21 07:29:09;;;;;;;28.52;13.73;;;-3.50;99.90;;;;;;5074329;28;20036;-69
2021/12/21 07:31:36;;;;;;;24.33;13.00;;;-3.50;99.90;;;;;;5039986;28;20080;-69
2021/12/21 07:34:02;;;;;;;25.70;13.35;;;-3.30;99.90;;;;;;5073270;28;20070;-69
2021/12/21 07:36:32;;;;;;;27.25;12.85;;;-3.50;99.90;;;;;;5056736;28;20040;-69
2021/12/21 07:39:06;;;;;;;27.25;12.95;;;-3.00;99.90;;;;;;5056814;28;20040;-71
2021/12/21 07:41:32;;;;;;;26.50;12.10;;;-3.50;99.90;;;;;;5073488;28;20193;-69
2021/12/21 07:43:58;;;;;;;28.83;13.90;;;-3.50;99.90;;;;;;5073500;28;20052;-69
2021/12/21 07:46:24;;;;;;;27.80;14.75;;;-3.20;99.90;;;;;;5073684;28;20067;-69
2021/12/21 07:48:50;;;;;;;30.42;15.23;;;-3.50;99.90;;;;;;5056274;28;20412;-70
2021/12/21 07:51:16;;;;;;;36.28;18.92;;;-2.40;99.90;;;;;;5054456;28;20036;-69
2021/12/21 07:53:42;;;;;;;31.50;16.42;;;-3.40;99.90;;;;;;5073816;28;20044;-68
2021/12/21 07:56:09;;;;;;;36.10;17.45;;;-3.40;99.90;;;;;;5056959;28;20135;-69
2021/12/21 07:58:35;;;;;;;40.42;22.00;;;-3.40;99.90;;;;;;5073683;28;20120;-70
2021/12/21 08:01:04;;;;;;;33.35;18.05;;;-3.20;99.90;;;;;;5056500;28;20048;-69
2021/12/21 08:03:33;;;;;;;31.92;16.92;;;-2.20;99.90;;;;;;5073325;28;20043;-69
2021/12/21 08:05:59;;;;;;;28.85;15.43;;;-3.30;99.90;;;;;;5056668;28;20049;-68
2021/12/21 08:08:29;;;;;;;33.90;15.25;;;-3.30;99.90;;;;;;5052125;28;20562;-69
2021/12/21 08:13:36;;;;;;;35.10;14.68;;;-3.30;99.90;;;;;;5052501;28;20056;-69
2021/12/21 08:16:02;;;;;;;36.55;15.48;;;-3.20;99.90;;;;;;5052623;28;20490;-69
2021/12/21 08:18:28;;;;;;;32.10;15.88;;;-3.10;99.90;;;;;;5019554;28;20040;-69
2021/12/21 08:20:54;;;;;;;31.15;14.95;;;-3.10;99.90;;;;;;5052686;28;20044;-70
2021/12/21 08:23:19;;;;;;;30.42;15.73;;;-3.00;99.90;;;;;;5052507;28;20041;-69
2021/12/21 08:25:45;;;;;;;33.80;15.57;;;-2.90;99.90;;;;;;5053283;28;20444;-69
2021/12/21 08:28:11;;;;;;;31.83;14.70;;;-2.80;99.90;;;;;;5053070;28;20048;-70
2021/12/21 08:30:37;;;;;;;32.05;15.88;;;-2.00;99.90;;;;;;5035602;28;20056;-69
2021/12/21 08:33:04;;;;;;;31.88;15.38;;;-2.60;99.90;;;;;;5051326;28;20102;-69
2021/12/21 08:35:30;;;;;;;33.00;15.23;;;-2.60;99.90;;;;;;5053141;28;20036;-70
2021/12/21 08:38:07;;;;;;;32.72;16.92;;;-2.50;99.90;;;;;;5052647;28;20080;-70
2021/12/21 08:40:40;;;;;;;36.30;17.02;;;-2.40;99.90;;;;;;5053973;28;20083;-71
2021/12/21 08:43:12;;;;;;;34.40;16.73;;;-1.90;99.90;;;;;;5051635;28;20050;-71
2021/12/21 08:45:41;;;;;;;39.00;15.90;;;-2.20;99.90;;;;;;5039638;28;20473;-71
2021/12/21 08:48:08;;;;;;;29.42;14.75;;;-2.10;99.90;;;;;;5036515;28;20504;-71
2021/12/21 08:50:35;;;;;;;29.55;15.20;;;-2.10;99.90;;;;;;5052446;28;20048;-71
2021/12/21 08:53:01;;;;;;;27.75;14.93;;;-1.80;99.90;;;;;;5051591;28;20084;-73
2021/12/21 08:55:27;;;;;;;32.60;15.07;;;-1.20;99.90;;;;;;5036128;28;20142;-72
2021/12/21 08:57:53;;;;;;;23.08;12.95;;;-1.70;99.90;;;;;;5036194;28;20524;-72
2021/12/21 09:00:20;;;;;;;22.45;13.02;;;-1.60;99.90;;;;;;5051282;28;20056;-72
2021/12/21 09:02:45;;;;;;;21.15;12.52;;;-1.50;99.90;;;;;;5051819;28;20045;-72
2021/12/21 09:05:15;;;;;;;24.02;12.60;;;-1.40;99.90;;;;;;5057520;28;20049;-72
2021/12/21 09:07:46;;;;;;;27.55;13.30;;;-1.20;99.90;;;;;;5059976;28;20060;-72
2021/12/21 09:10:13;;;;;;;37.88;22.60;;;-1.20;99.90;;;;;;5064618;28;20058;-71
2021/12/21 09:12:40;;;;;;;19.33;11.38;;;-1.10;99.90;;;;;;5049830;28;20118;-72
2021/12/21 09:15:09;;;;;;;25.10;12.20;;;-1.00;99.90;;;;;;5036485;28;20044;-72
2021/12/21 09:17:36;;;;;;;25.08;12.10;;;-0.80;99.90;;;;;;5058394;28;20083;-72
2021/12/21 09:20:04;;;;;;;22.55;11.60;;;-0.80;99.90;;;;;;5059978;28;20087;-73
2021/12/21 09:22:29;;;;;;;21.95;11.57;;;-0.70;99.90;;;;;;5051947;28;20087;-73
2021/12/21 09:24:57;;;;;;;26.52;10.85;;;-0.60;99.90;;;;;;5061796;28;20072;-73
2021/12/21 09:27:24;;;;;;;17.48;9.85;;;-0.50;99.90;;;;;;5058994;28;20046;-73
2021/12/21 09:29:49;;;;;;;17.88;9.80;;;-0.50;99.90;;;;;;5045013;28;20051;-73
2021/12/21 09:32:18;;;;;;;22.73;10.73;;;0.60;99.90;;;;;;5056839;28;20045;-73
2021/12/21 09:34:44;;;;;;;25.02;10.60;;;-0.30;99.90;;;;;;5060358;28;20053;-74
2021/12/21 09:37:15;;;;;;;18.52;9.70;;;0.60;99.90;;;;;;5061056;28;20049;-74
2021/12/21 09:39:47;;;;;;;16.80;8.70;;;-0.10;99.90;;;;;;5051881;28;20474;-75
2021/12/21 09:42:15;;;;;;;16.10;8.82;;;0.00;99.90;;;;;;5063602;28;20084;-74
2021/12/21 09:44:42;;;;;;;20.30;9.70;;;0.70;99.90;;;;;;5052521;28;20049;-74
2021/12/21 09:47:10;;;;;;;17.67;9.05;;;0.20;99.90;;;;;;5045692;28;20048;-73
2021/12/21 09:49:39;;;;;;;17.52;8.70;;;0.20;99.90;;;;;;5043479;28;20398;-74
2021/12/21 09:52:07;;;;;;;19.30;10.48;;;1.10;99.90;;;;;;5068420;28;20101;-73
2021/12/21 09:54:34;;;;;;;13.60;8.52;;;1.00;99.90;;;;;;5062537;28;20072;-73
2021/12/21 09:57:00;;;;;;;17.52;8.02;;;0.50;99.90;;;;;;5058107;28;20045;-73
2021/12/21 09:59:27;;;;;;;14.77;7.45;;;0.60;99.90;;;;;;5057528;28;20041;-73
2021/12/21 10:01:56;;;;;;;15.00;8.38;;;0.60;99.90;;;;;;5067909;28;20102;-73
2021/12/21 10:04:22;;;;;;;13.65;7.85;;;0.70;99.90;;;;;;5059420;28;20041;-73
2021/12/21 10:06:50;;;;;;;13.48;7.65;;;0.70;99.90;;;;;;5058154;28;20154;-72
2021/12/21 10:09:23;;;;;;;13.27;7.70;;;0.80;99.90;;;;;;5074366;28;20052;-72
2021/12/21 10:11:50;;;;;;;15.07;7.05;;;1.40;99.90;;;;;;5071540;28;20048;-73
2021/12/21 10:14:17;;;;;;;12.10;6.88;;;0.90;99.90;;;;;;5058475;28;20083;-72
2021/12/21 10:16:45;;;;;;;13.98;7.57;;;1.50;99.90;;;;;;5075071;28;20510;-72
2021/12/21 10:19:24;;;;;;;14.68;7.85;;;1.30;99.90;;;;;;5091412;28;20052;-72
2021/12/21 10:21:51;;;;;;;15.82;7.13;;;1.60;99.90;;;;;;5074745;28;20388;-72
2021/12/21 10:24:27;;;;;;;9.70;6.53;;;1.10;99.90;;;;;;5075712;28;20047;-72
2021/12/21 10:27:08;;;;;;;13.68;7.70;;;1.20;99.90;;;;;;5074901;28;20068;-73
2021/12/21 10:29:47;;;;;;;13.73;7.20;;;1.30;99.90;;;;;;5075628;28;20138;-72
2021/12/21 10:32:21;;;;;;;14.35;7.50;;;1.40;99.90;;;;;;5072652;28;20036;-72
2021/12/21 10:34:52;;;;;;;16.25;7.82;;;1.50;99.90;;;;;;5074022;28;20059;-73
2021/12/21 10:37:36;;;;;;;13.90;7.53;;;1.60;99.90;;;;;;5073769;28;20041;-73
2021/12/21 10:40:23;;;;;;;13.00;6.78;;;1.70;99.90;;;;;;5075038;28;20093;-73
2021/12/21 10:42:56;;;;;;;11.00;6.90;;;1.80;99.90;;;;;;5074462;28;20036;-72
2021/12/21 10:45:30;;;;;;;15.13;7.63;;;1.80;99.90;;;;;;5072816;28;20049;-72
2021/12/21 10:47:58;;;;;;;14.52;7.22;;;1.90;99.90;;;;;;5057425;28;20496;-72
2021/12/21 10:50:25;;;;;;;14.32;7.32;;;2.00;99.90;;;;;;5067671;28;20052;-72
2021/12/21 10:52:54;;;;;;;12.80;6.80;;;2.20;99.90;;;;;;5057201;28;20064;-72
2021/12/21 10:55:39;;;;;;;14.65;7.47;;;2.20;99.90;;;;;;5058481;28;20040;-72
2021/12/21 10:58:12;;;;;;;15.52;7.45;;;2.30;99.90;;;;;;5074605;28;20044;-72
2021/12/21 11:00:41;;;;;;;17.75;7.03;;;2.30;99.90;;;;;;5072837;28;20099;-72
2021/12/21 11:03:07;;;;;;;15.88;7.38;;;2.40;99.90;;;;;;5074807;28;21643;-72
2021/12/21 11:05:34;;;;;;;14.43;7.25;;;2.50;99.90;;;;;;5058072;28;20052;-72
2021/12/21 11:08:16;;;;;;;11.60;6.70;;;2.80;99.90;;;;;;5055190;28;20126;-73
2021/12/21 11:10:50;;;;;;;16.08;7.45;;;3.40;99.90;;;;;;5070544;28;20119;-73
2021/12/21 11:13:16;;;;;;;19.98;7.85;;;2.80;99.90;;;;;;5056705;28;20044;-72
2021/12/21 11:15:44;;;;;;;12.98;7.40;;;3.10;99.90;;;;;;5057613;28;20135;-72
2021/12/21 11:18:18;;;;;;;14.55;7.38;;;3.00;99.90;;;;;;5073489;28;20084;-73
2021/12/21 11:20:48;;;;;;;19.55;7.95;;;3.50;99.90;;;;;;5070217;28;20044;-73
2021/12/21 11:23:19;;;;;;;16.63;7.60;;;3.10;99.90;;;;;;5070607;28;20170;-72
2021/12/21 11:25:48;;;;;;;16.05;6.82;;;4.00;99.90;;;;;;5071605;28;20101;-73
2021/12/21 11:28:21;;;;;;;12.52;7.55;;;3.60;99.90;;;;;;5070531;28;20044;-73
2021/12/21 11:30:47;;;;;;;18.65;7.65;;;4.00;99.90;;;;;;5051012;28;20148;-72
2021/12/21 11:33:17;;;;;;;12.77;7.47;;;4.20;99.90;;;;;;5057426;28;20093;-73
2021/12/21 11:38:11;;;;;;;15.25;6.85;;;5.10;99.90;;;;;;5071995;28;20420;-73
2021/12/21 11:40:45;;;;;;;12.65;5.97;;;5.70;99.90;;;;;;5072604;28;20109;-73
2021/12/21 11:43:23;;;;;;;13.48;6.45;;;5.70;99.90;;;;;;5054173;28;20051;-73
2021/12/21 11:46:05;;;;;;;10.50;5.93;;;5.90;99.90;;;;;;5072320;28;20044;-73
2021/12/21 11:48:48;;;;;;;12.38;6.40;;;6.00;99.90;;;;;;5090229;28;20075;-72
2021/12/21 11:51:15;;;;;;;10.15;5.68;;;6.20;99.90;;;;;;5052407;28;20455;-73
2021/12/21 11:53:41;;;;;;;16.67;6.78;;;6.40;99.90;;;;;;5075644;28;20054;-73
2021/12/21 11:56:08;;;;;;;13.70;6.20;;;6.70;99.90;;;;;;5074115;28;20040;-73
2021/12/21 11:58:42;;;;;;;14.93;5.93;;;6.90;99.90;;;;;;5071232;28;20048;-73
2021/12/21 12:01:16;;;;;;;12.00;5.65;;;7.10;99.90;;;;;;5071021;28;20477;-73
2021/12/21 12:04:00;;;;;;;12.43;5.70;;;7.50;99.90;;;;;;5071937;28;20063;-73
2021/12/21 12:06:45;;;;;;;12.90;5.43;;;7.90;99.90;;;;;;5065921;28;20052;-73
2021/12/21 12:09:25;;;;;;;13.15;5.65;;;8.10;99.90;;;;;;5043533;28;20061;-74
2021/12/21 12:11:52;;;;;;;9.55;5.30;;;8.40;99.90;;;;;;5059657;28;20045;-74
2021/12/21 12:14:21;;;;;;;10.40;5.70;;;8.60;99.90;;;;;;5064405;28;20056;-73
2021/12/21 12:17:01;;;;;;;9.40;5.32;;;8.50;99.90;;;;;;5061122;28;20048;-73
2021/12/21 12:19:35;;;;;;;9.40;5.13;;;8.70;99.90;;;;;;5057609;28;20060;-74
2021/12/21 12:22:07;;;;;;;12.07;5.35;;;8.80;99.90;;;;;;5037096;28;20109;-73
2021/12/21 12:24:38;;;;;;;12.75;5.72;;;8.90;99.90;;;;;;5039654;28;20082;-73
2021/12/21 12:27:16;;;;;;;12.52;5.38;;;8.90;99.90;;;;;;5050328;28;20052;-74
2021/12/21 12:30:09;;;;;;;9.20;4.50;;;9.10;99.90;;;;;;5022143;28;20053;-74
2021/12/21 12:32:47;;;;;;;8.80;5.20;;;9.20;99.90;;;;;;5034782;28;20098;-74
2021/12/21 12:35:19;;;;;;;12.65;5.50;;;9.30;99.90;;;;;;5053323;28;20075;-74
2021/12/21 12:38:15;;;;;;;10.45;5.45;;;9.40;99.90;;;;;;5056833;28;20043;-73
2021/12/21 12:40:57;;;;;;;8.88;5.35;;;9.50;99.90;;;;;;5056644;28;20078;-74
2021/12/21 12:43:26;;;;;;;9.05;4.90;;;9.60;99.90;;;;;;5061630;28;20048;-73
2021/12/21 12:46:03;;;;;;;9.35;5.00;;;9.80;99.90;;;;;;5052268;28;20040;-73
2021/12/21 12:48:39;;;;;;;9.98;5.15;;;9.70;99.90;;;;;;5052949;28;20057;-73
2021/12/21 12:51:07;;;;;;;8.95;5.25;;;9.90;99.90;;;;;;5042562;28;20167;-73
2021/12/21 12:53:45;;;;;;;8.25;5.03;;;10.10;99.90;;;;;;5044747;28;20043;-73
2021/12/21 12:56:14;;;;;;;8.73;5.07;;;10.00;99.90;;;;;;5061270;28;20106;-74
2021/12/21 12:58:54;;;;;;;8.63;4.90;;;10.30;99.90;;;;;;5062572;28;20048;-73
2021/12/21 13:01:26;;;;;;;10.10;5.23;;;10.00;99.90;;;;;;5046030;28;20480;-73
2021/12/21 13:03:56;;;;;;;7.38;4.50;;;10.10;99.90;;;;;;5052297;28;20048;-73
2021/12/21 13:06:26;;;;;;;7.13;4.78;;;10.10;99.90;;;;;;5053220;28;20068;-73
2021/12/21 13:08:52;;;;;;;10.82;5.20;;;10.10;99.90;;;;;;5054072;28;20036;-74
2021/12/21 13:11:24;;;;;;;11.75;4.95;;;10.10;99.90;;;;;;5066081;28;20049;-73
2021/12/21 13:13:50;;;;;;;11.55;5.28;;;10.10;99.90;;;;;;5053718;28;20047;-73
2021/12/21 13:16:19;;;;;;;10.57;5.13;;;10.10;99.90;;;;;;5050757;28;20052;-73
2021/12/21 13:18:53;;;;;;;8.63;4.85;;;10.40;99.90;;;;;;5059194;28;20469;-73
2021/12/21 13:21:23;;;;;;;8.20;4.63;;;10.30;99.90;;;;;;5055215;28;20504;-73
2021/12/21 13:23:51;;;;;;;8.88;4.85;;;10.40;99.90;;;;;;5061097;28;20476;-73
2021/12/21 13:26:19;;;;;;;8.95;4.78;;;10.50;99.90;;;;;;5063792;28;20041;-74
2021/12/21 13:28:55;;;;;;;8.00;5.57;;;10.60;99.90;;;;;;5034504;28;20037;-74
2021/12/21 13:31:23;;;;;;;8.50;5.20;;;10.80;99.90;;;;;;5032378;28;20053;-73
2021/12/21 13:33:52;;;;;;;7.68;4.65;;;10.80;99.90;;;;;;5048975;28;20041;-73
2021/12/21 13:36:18;;;;;;;11.10;4.93;;;10.80;99.90;;;;;;5061116;28;20052;-73
2021/12/21 13:38:44;;;;;;;9.68;5.43;;;10.90;99.90;;;;;;5049747;28;20056;-73
2021/12/21 13:41:13;;;;;;;9.55;5.00;;;11.10;99.90;;;;;;5058867;28;20052;-73
2021/12/21 13:43:52;;;;;;;9.50;4.78;;;11.20;99.90;;;;;;5051122;28;20066;-73